createdAt,value
2018-05-24T00:01:52.686Z,98771
2018-05-24T00:04:20.239Z,98769
2018-05-24T00:06:47.829Z,98775
2018-05-24T00:09:15.395Z,98773
2018-05-24T00:11:42.956Z,98758
2018-05-24T00:14:10.516Z,98763
2018-05-24T00:16:38.076Z,98759
2018-05-24T00:19:05.634Z,98759
2018-05-24T00:50:22.222Z,98740
2018-05-24T01:10:07.241Z,98756
2018-05-24T01:12:34.799Z,98743
2018-05-24T01:15:02.349Z,98732
2018-05-24T01:17:29.904Z,98738
2018-05-24T01:19:57.458Z,98740
2018-05-24T01:22:25.032Z,98746
2018-05-24T01:24:52.588Z,98738
2018-05-24T01:27:20.149Z,98748
2018-05-24T01:29:47.712Z,98744
2018-05-24T01:32:15.270Z,98747
2018-05-24T01:34:42.922Z,98754
2018-05-24T01:37:22.263Z,98753
2018-05-24T01:39:49.841Z,98757
2018-05-24T01:42:17.397Z,98750
2018-05-24T01:44:44.957Z,98754
2018-05-24T01:47:12.521Z,98762
2018-05-24T01:49:40.098Z,98763
2018-05-24T01:52:07.653Z,98756
2018-05-24T01:54:35.223Z,98752
2018-05-24T01:57:02.784Z,98758
2018-05-24T01:59:30.345Z,98761
2018-05-24T02:01:57.894Z,98754
2018-05-24T02:04:25.459Z,98765
2018-05-24T02:06:53.023Z,98771
2018-05-24T02:09:20.593Z,98769
2018-05-24T02:11:48.147Z,98761
2018-05-24T02:14:15.707Z,98766
2018-05-24T02:16:43.262Z,98765
2018-05-24T02:19:10.816Z,98766
2018-05-24T02:21:38.372Z,98767
2018-05-24T02:24:05.935Z,98777
2018-05-24T02:26:33.497Z,98777
2018-05-24T02:29:01.139Z,98783
2018-05-24T02:31:28.638Z,98788
2018-05-24T02:33:56.204Z,98782
2018-05-24T02:36:23.764Z,98787
2018-05-24T02:38:51.328Z,98712
2018-05-24T02:41:18.891Z,98795
2018-05-24T02:43:46.454Z,98791
2018-05-24T02:46:14.012Z,98788
2018-05-24T02:48:41.569Z,98796
2018-05-24T02:51:09.124Z,98786
2018-05-24T02:53:36.679Z,98791
2018-05-24T02:56:04.250Z,98785
2018-05-24T03:15:50.410Z,98769
2018-05-24T03:18:17.966Z,98765
2018-05-24T03:20:45.529Z,98769
2018-05-24T03:23:13.097Z,98766
2018-05-24T03:25:40.669Z,98778
2018-05-24T03:28:08.260Z,98762
2018-05-24T03:47:52.556Z,98773
2018-05-24T04:07:38.039Z,98786
2018-05-24T04:10:05.616Z,98796
2018-05-24T04:12:33.176Z,98787
2018-05-24T04:15:00.768Z,98796
2018-05-24T04:17:28.333Z,98783
2018-05-24T04:19:55.919Z,98791
2018-05-24T04:22:23.496Z,98797
2018-05-24T04:24:51.078Z,98786
2018-05-24T04:27:18.662Z,98791
2018-05-24T04:47:03.360Z,98792
2018-05-24T04:49:30.954Z,98787
2018-05-24T05:15:01.224Z,98798
2018-05-24T05:34:47.677Z,98793
2018-05-24T05:37:15.263Z,98795
2018-05-24T05:57:00.764Z,98820
2018-05-24T05:59:28.345Z,98821
2018-05-24T06:01:55.977Z,98811
2018-05-24T06:04:23.529Z,98811
2018-05-24T06:06:51.105Z,98817
2018-05-24T06:09:18.675Z,98818
2018-05-24T06:11:46.282Z,98818
2018-05-24T06:31:31.803Z,98839
2018-05-24T06:33:59.436Z,98831
2018-05-24T06:36:27.040Z,98823
2018-05-24T06:56:12.047Z,98845
2018-05-24T06:58:39.647Z,98847
2018-05-24T07:01:07.227Z,98848
2018-05-24T07:03:34.833Z,98843
2018-05-24T07:06:02.527Z,98852
2018-05-24T07:08:30.009Z,98856
2018-05-24T07:28:16.922Z,98867
2018-05-24T07:53:53.914Z,98862
2018-05-24T08:13:38.301Z,98854
2018-05-24T08:16:05.865Z,98851
2018-05-24T08:18:33.441Z,98838
2018-05-24T08:38:18.555Z,98807
2018-05-24T08:58:02.440Z,98819
2018-05-24T09:00:30.024Z,98821
2018-05-24T09:02:57.651Z,98826
2018-05-24T09:22:43.190Z,98826
2018-05-24T09:25:10.794Z,98818
2018-05-24T09:27:38.398Z,98823
2018-05-24T09:30:05.973Z,98829
2018-05-24T09:49:52.737Z,98823
2018-05-24T09:52:20.319Z,98818
2018-05-24T10:12:05.871Z,98804
2018-05-24T10:14:33.535Z,98809
2018-05-24T10:17:01.172Z,98798
2018-05-24T10:45:25.065Z,98786
2018-05-24T10:47:52.637Z,98783
2018-05-24T10:50:20.199Z,98785
2018-05-24T10:52:47.773Z,98781
2018-05-24T10:55:15.329Z,98780
2018-05-24T11:15:01.130Z,98761
2018-05-24T11:49:11.728Z,98750
2018-05-24T12:08:57.727Z,98763
2018-05-24T12:28:42.007Z,98729
2018-05-24T12:31:09.570Z,98734
2018-05-24T12:33:37.152Z,98726
2018-05-24T12:36:04.775Z,98728
2018-05-24T12:38:32.372Z,98737
2018-05-24T12:40:59.948Z,98720
2018-05-24T12:43:27.511Z,98731
2018-05-24T12:45:55.090Z,98722
2018-05-24T12:48:22.732Z,98726
2018-05-24T12:50:50.794Z,98726
2018-05-24T12:53:19.439Z,98724
2018-05-24T12:55:47.320Z,98729
2018-05-24T12:58:14.906Z,98745
2018-05-24T13:00:43.757Z,98741
2018-05-24T13:32:01.139Z,98729
2018-05-24T13:34:28.751Z,98727
2018-05-24T13:45:34.655Z,98715
2018-05-24T14:05:20.418Z,98768
2018-05-24T14:07:47.935Z,98762
2018-05-24T14:27:33.488Z,98764
2018-05-24T14:30:01.124Z,98757
2018-05-24T14:49:45.422Z,98738
2018-05-24T15:09:53.960Z,98713
2018-05-24T15:12:21.582Z,98708
2018-05-24T15:32:07.055Z,98683
2018-05-24T15:51:52.739Z,98700
2018-05-24T16:11:37.998Z,98696
2018-05-24T16:31:29.927Z,98681
2018-05-24T16:33:57.524Z,98675
2018-05-24T16:36:25.087Z,98682
2018-05-24T16:38:52.667Z,98681
2018-05-24T16:58:37.429Z,98681
2018-05-24T17:01:05.088Z,98674
2018-05-24T17:03:32.827Z,98679
2018-05-24T17:14:48.700Z,98674
2018-05-24T17:17:16.268Z,98678
2018-05-24T17:51:49.797Z,98682
2018-05-24T17:54:17.386Z,98689
2018-05-24T18:14:02.577Z,98679
2018-05-24T18:16:30.157Z,98683
2018-05-24T18:18:57.737Z,98672
2018-05-24T18:44:30.035Z,98714
2018-05-24T18:46:57.790Z,98714
2018-05-24T19:26:56.106Z,98731
2018-05-24T19:29:23.723Z,98730
2018-05-24T19:49:10.006Z,98737
2018-05-24T20:20:45.559Z,98729
2018-05-24T20:23:13.259Z,98742
2018-05-24T20:31:28.376Z,98740
2018-05-24T20:33:56.169Z,98747
2018-05-24T20:36:26.229Z,98742
2018-05-24T20:38:55.563Z,98743
2018-05-24T20:48:59.557Z,98745
2018-05-24T20:51:29.320Z,98758
2018-05-24T20:54:01.770Z,98754
2018-05-24T21:06:38.357Z,98747
2018-05-24T21:11:38.749Z,98753
2018-05-24T21:21:42.103Z,98751
2018-05-24T21:24:10.128Z,98758
2018-05-24T21:26:37.943Z,98758
2018-05-24T21:31:37.602Z,98759
2018-05-24T21:34:05.233Z,98760
2018-05-24T21:44:10.432Z,98755
2018-05-24T21:59:18.190Z,98769
2018-05-24T22:01:46.227Z,98776
2018-05-24T22:04:14.315Z,98762
2018-05-24T22:06:41.962Z,98772
2018-05-24T22:09:09.566Z,98779
2018-05-24T22:11:37.236Z,98781
2018-05-24T22:16:55.210Z,98793
2018-05-24T22:19:22.830Z,98794
2018-05-24T22:21:50.483Z,98785
2018-05-24T22:24:18.104Z,98792
2018-05-24T22:26:45.713Z,98792
2018-05-24T22:29:13.392Z,98795
2018-05-24T22:31:41.019Z,98800
2018-05-24T22:34:09.400Z,98800
2018-05-24T22:36:37.012Z,98801
2018-05-24T22:39:05.391Z,98798
2018-05-24T22:41:33.052Z,98792
2018-05-24T22:44:01.546Z,98808
2018-05-24T22:46:29.225Z,98797
2018-05-24T22:48:56.818Z,98785
2018-05-24T22:51:24.435Z,98794
2018-05-24T22:53:52.149Z,98791
2018-05-24T22:56:19.790Z,98794
2018-05-24T22:58:49.151Z,98793
2018-05-24T23:01:16.805Z,98795
2018-05-24T23:03:44.432Z,98792
2018-05-24T23:06:12.085Z,98792
2018-05-24T23:08:39.735Z,98791
2018-05-24T23:11:08.176Z,98787
2018-05-24T23:13:35.854Z,98788
2018-05-24T23:16:03.513Z,98787
2018-05-24T23:18:31.136Z,98787
2018-05-24T23:20:58.743Z,98785
2018-05-24T23:23:27.157Z,98777
2018-05-24T23:25:54.819Z,98777
2018-05-24T23:28:22.472Z,98779
2018-05-24T23:30:52.132Z,98768
2018-05-24T23:33:19.794Z,98774
2018-05-24T23:35:47.428Z,98774
2018-05-24T23:38:15.066Z,98775
2018-05-24T23:40:42.718Z,98781
2018-05-24T23:43:10.309Z,98781
2018-05-24T23:45:37.992Z,98781
2018-05-24T23:48:05.623Z,98792
2018-05-24T23:50:34.361Z,98794
2018-05-24T23:53:01.967Z,98787
2018-05-24T23:55:29.617Z,98775
2018-05-24T23:57:57.277Z,98788
